Time;durP1;ratioP1;P1;durP2;ratioP2;P2;SDS_P1;SDS_P2;PMS_P1;PMS_P2;Temp;Humidity;BMP_temperature;BMP_pressure;BME280_temperature;BME280_humidity;BME280_pressure;Samples;Min_cycle;Max_cycle;Signal;HPM_P1;HPM_P2
2021/07/20 00:00:13;;;;;;;;;;;;;;;20.74;63.10;99371.78;5095884;28;20022;-71
2021/07/20 00:02:44;;;;;;;;;;;;;;;20.75;63.25;99373.50;5095555;28;19935;-72
2021/07/20 00:05:15;;;;;;;;;;;;;;;20.73;63.12;99364.94;5095558;28;20300;-71
2021/07/20 00:07:44;;;;;;;;;;;;;;;20.71;63.19;99361.56;5095501;28;19977;-71
2021/07/20 00:10:14;;;;;;;;;;;;;;;20.69;63.03;99361.63;5095349;28;19924;-71
2021/07/20 00:12:43;;;;;;;;;;;;;;;20.67;63.39;99360.88;5096340;28;19924;-72
2021/07/20 00:15:13;;;;;;;;;;;;;;;20.66;63.38;99359.19;5095260;28;19957;-72
2021/07/20 00:17:44;;;;;;;;;;;;;;;20.62;63.32;99356.81;5095209;28;20008;-72
2021/07/20 00:20:14;;;;;;;;;;;;;;;20.64;63.50;99358.41;5095102;28;19928;-72
2021/07/20 00:22:43;;;;;;;;;;;;;;;20.61;63.27;99352.53;5095435;28;19994;-71
2021/07/20 00:25:13;;;;;;;;;;;;;;;20.58;63.56;99360.47;5095787;28;19959;-72
2021/07/20 00:27:42;;;;;;;;;;;;;;;20.62;63.55;99356.81;5095087;28;19932;-70
2021/07/20 00:30:12;;;;;;;;;;;;;;;20.59;63.49;99356.94;5095320;28;19956;-71
2021/07/20 00:32:41;;;;;;;;;;;;;;;20.54;63.76;99359.75;5095252;28;19924;-71
2021/07/20 00:35:13;;;;;;;;;;;;;;;20.54;63.85;99353.72;5095006;28;19953;-71
2021/07/20 00:37:42;;;;;;;;;;;;;;;20.56;63.67;99357.91;5094961;28;19939;-72
2021/07/20 00:40:13;;;;;;;;;;;;;;;20.60;63.79;99363.81;5094823;28;19946;-71
2021/07/20 00:42:42;;;;;;;;;;;;;;;20.55;63.88;99358.00;5077168;28;19928;-72
2021/07/20 00:45:11;;;;;;;;;;;;;;;20.54;63.88;99353.72;5076803;28;20296;-71
2021/07/20 00:47:40;;;;;;;;;;;;;;;20.53;64.20;99347.72;5094970;28;19924;-71
2021/07/20 00:50:14;;;;;;;;;;;;;;;20.51;64.04;99338.31;5095039;28;20429;-71
2021/07/20 00:52:45;;;;;;;;;;;;;;;20.48;64.00;99346.22;5076677;28;19951;-71
2021/07/20 00:55:16;;;;;;;;;;;;;;;20.41;64.25;99343.09;5076929;28;19952;-71
2021/07/20 00:57:44;;;;;;;;;;;;;;;20.35;64.41;99339.91;5094764;28;20275;-71
2021/07/20 01:00:15;;;;;;;;;;;;;;;20.28;64.54;99341.97;5076692;28;19924;-71
2021/07/20 01:02:47;;;;;;;;;;;;;;;20.26;64.73;99343.78;5076889;28;19960;-72
2021/07/20 01:05:20;;;;;;;;;;;;;;;20.28;64.65;99346.28;5094818;28;19924;-71
2021/07/20 01:07:49;;;;;;;;;;;;;;;20.23;64.81;99337.91;5075979;28;19924;-71
2021/07/20 01:10:19;;;;;;;;;;;;;;;20.18;65.09;99339.84;5076695;28;19974;-72
2021/07/20 01:12:49;;;;;;;;;;;;;;;20.08;65.16;99333.38;5094360;28;20389;-71
2021/07/20 01:15:23;;;;;;;;;;;;;;;20.04;65.39;99337.84;5094310;28;19931;-71
2021/07/20 01:17:54;;;;;;;;;;;;;;;19.93;65.80;99348.69;5076785;28;19935;-71
2021/07/20 01:20:27;;;;;;;;;;;;;;;19.72;66.34;99349.63;5075943;28;19924;-71
2021/07/20 01:23:00;;;;;;;;;;;;;;;19.71;66.75;99345.34;5076497;28;19924;-71
2021/07/20 01:25:31;;;;;;;;;;;;;;;19.71;66.81;99350.53;5076399;28;19931;-72
2021/07/20 01:28:02;;;;;;;;;;;;;;;19.67;67.08;99349.00;5076206;28;19974;-72
2021/07/20 01:30:33;;;;;;;;;;;;;;;19.78;67.31;99346.75;5076163;28;19924;-72
2021/07/20 01:33:03;;;;;;;;;;;;;;;19.82;67.18;99337.94;5094279;28;20358;-72
2021/07/20 01:35:34;;;;;;;;;;;;;;;19.80;67.11;99336.31;5094117;28;19932;-72
2021/07/20 01:38:08;;;;;;;;;;;;;;;19.70;67.06;99346.25;5076159;28;20026;-71
2021/07/20 01:40:39;;;;;;;;;;;;;;;19.64;67.29;99343.94;5094374;28;19931;-71
2021/07/20 01:43:08;;;;;;;;;;;;;;;19.57;67.56;99342.53;5094705;28;19931;-71
2021/07/20 01:45:39;;;;;;;;;;;;;;;19.59;67.68;99345.88;5094108;28;20023;-71
2021/07/20 01:48:09;;;;;;;;;;;;;;;19.63;67.62;99351.75;5093895;28;19931;-71
2021/07/20 01:50:38;;;;;;;;;;;;;;;19.67;67.76;99354.16;5076002;28;19970;-72
2021/07/20 01:53:08;;;;;;;;;;;;;;;19.62;67.79;99356.13;5094041;28;19931;-72
2021/07/20 01:55:39;;;;;;;;;;;;;;;19.54;67.86;99342.63;5076157;28;19924;-72
2021/07/20 01:58:08;;;;;;;;;;;;;;;19.52;68.21;99349.63;5094191;28;19946;-71
2021/07/20 02:01:01;;;;;;;;;;;;;;;19.51;68.21;99342.75;5055741;28;19924;-71
2021/07/20 02:03:47;;;;;;;;;;;;;;;19.58;68.17;99344.19;5059120;28;19928;-71
2021/07/20 02:09:06;;;;;;;;;;;;;;;19.54;68.20;99353.00;5093809;28;19972;-71
2021/07/20 02:11:39;;;;;;;;;;;;;;;19.51;68.14;99355.72;5094352;28;19924;-71
2021/07/20 02:14:22;;;;;;;;;;;;;;;19.54;67.92;99353.00;5094140;28;19924;-71
2021/07/20 02:17:02;;;;;;;;;;;;;;;19.56;67.87;99352.91;5094036;28;19947;-71
2021/07/20 02:19:36;;;;;;;;;;;;;;;19.56;67.92;99346.00;5076997;28;19963;-71
2021/07/20 02:22:17;;;;;;;;;;;;;;;19.51;67.90;99347.94;5079803;28;20344;-71
2021/07/20 02:24:49;;;;;;;;;;;;;;;19.47;68.29;99345.53;5079999;28;20356;-71
2021/07/20 02:27:21;;;;;;;;;;;;;;;19.50;68.00;99348.88;5097513;28;19924;-72
2021/07/20 02:30:05;;;;;;;;;;;;;;;19.50;67.85;99350.59;5097372;28;19925;-71
2021/07/20 02:32:34;;;;;;;;;;;;;;;19.52;67.98;99348.78;5097426;28;19977;-71
2021/07/20 02:35:13;;;;;;;;;;;;;;;19.55;67.86;99344.34;5079307;28;19924;-72
2021/07/20 02:37:42;;;;;;;;;;;;;;;19.61;67.86;99341.47;5097184;28;20370;-71
2021/07/20 02:40:13;;;;;;;;;;;;;;;19.67;67.58;99343.81;5079116;28;20015;-71
2021/07/20 02:42:46;;;;;;;;;;;;;;;19.71;67.50;99345.34;5097403;28;19924;-71
2021/07/20 02:45:16;;;;;;;;;;;;;;;19.72;67.21;99347.06;5097131;28;19924;-71
2021/07/20 02:47:49;;;;;;;;;;;;;;;19.72;67.48;99352.22;5097022;28;19924;-71
2021/07/20 02:50:24;;;;;;;;;;;;;;;19.75;67.64;99353.81;5096961;28;19935;-71
2021/07/20 02:53:14;;;;;;;;;;;;;;;19.77;67.31;99350.25;5079261;28;20382;-71
2021/07/20 02:55:55;;;;;;;;;;;;;;;19.79;67.34;99352.78;5078951;28;19989;-72
2021/07/20 02:58:27;;;;;;;;;;;;;;;19.80;67.29;99363.06;5079085;28;19924;-71
2021/07/20 03:00:57;;;;;;;;;;;;;;;19.75;67.57;99365.03;5096710;28;19931;-71
2021/07/20 03:03:27;;;;;;;;;;;;;;;19.67;67.41;99359.34;5096956;28;20030;-71
2021/07/20 03:06:00;;;;;;;;;;;;;;;19.63;67.43;99365.53;5078770;28;19928;-71
2021/07/20 03:08:31;;;;;;;;;;;;;;;19.60;67.61;99357.94;5096685;28;19924;-71
2021/07/20 03:11:15;;;;;;;;;;;;;;;19.52;67.73;99354.81;5078616;28;19924;-71
2021/07/20 03:13:47;;;;;;;;;;;;;;;19.47;68.09;99351.56;5096488;28;20482;-71
2021/07/20 03:16:17;;;;;;;;;;;;;;;19.48;68.36;99355.84;5096468;28;19924;-71
2021/07/20 03:18:49;;;;;;;;;;;;;;;19.51;68.26;99347.94;5096426;28;19924;-71
2021/07/20 03:21:18;;;;;;;;;;;;;;;19.51;68.00;99350.53;5078726;28;19924;-71
2021/07/20 03:23:48;;;;;;;;;;;;;;;19.52;68.06;99339.28;5096571;28;20279;-71
2021/07/20 03:26:18;;;;;;;;;;;;;;;19.53;68.14;99340.13;5078335;28;20023;-71
2021/07/20 03:28:50;;;;;;;;;;;;;;;19.50;68.10;99338.50;5096311;28;19931;-70
2021/07/20 03:31:19;;;;;;;;;;;;;;;19.54;68.19;99336.63;5095709;28;19924;-71
2021/07/20 03:33:54;;;;;;;;;;;;;;;19.59;68.15;99335.53;5078655;28;20422;-71
2021/07/20 03:36:34;;;;;;;;;;;;;;;19.62;68.06;99345.75;5096158;28;19928;-70
2021/07/20 03:39:04;;;;;;;;;;;;;;;19.67;67.93;99343.81;5096938;28;19961;-71
2021/07/20 03:41:35;;;;;;;;;;;;;;;19.69;67.80;99347.19;5078006;28;19924;-71
2021/07/20 03:44:06;;;;;;;;;;;;;;;19.74;67.90;99340.06;5096088;28;20034;-71
2021/07/20 03:46:35;;;;;;;;;;;;;;;19.77;67.76;99337.31;5096210;28;19924;-71
2021/07/20 03:49:05;;;;;;;;;;;;;;;19.78;67.85;99351.94;5095848;28;19924;-71
2021/07/20 03:51:43;;;;;;;;;;;;;;;19.82;67.80;99343.13;5077774;28;19924;-71
2021/07/20 03:54:12;;;;;;;;;;;;;;;19.81;67.56;99349.22;5077796;28;19928;-72
2021/07/20 03:56:41;;;;;;;;;;;;;;;19.83;67.80;99355.19;5078082;28;19924;-71
2021/07/20 03:59:14;;;;;;;;;;;;;;;19.86;67.64;99347.28;5096129;28;19974;-71
2021/07/20 04:01:54;;;;;;;;;;;;;;;19.92;67.53;99338.38;5095910;28;19935;-72
2021/07/20 04:04:23;;;;;;;;;;;;;;;19.93;67.68;99340.94;5077739;28;19931;-71
2021/07/20 04:07:03;;;;;;;;;;;;;;;19.94;67.45;99342.59;5095813;28;19924;-71
2021/07/20 04:09:38;;;;;;;;;;;;;;;20.00;67.27;99350.09;5095498;28;19924;-71
2021/07/20 04:12:34;;;;;;;;;;;;;;;20.05;67.07;99355.94;5064429;28;19950;-71
2021/07/20 04:15:16;;;;;;;;;;;;;;;20.04;67.25;99349.06;5077644;28;20403;-70
2021/07/20 04:17:59;;;;;;;;;;;;;;;20.06;67.24;99347.22;5077366;28;19924;-71
2021/07/20 04:20:29;;;;;;;;;;;;;;;20.12;67.07;99347.88;5077184;28;20013;-71
2021/07/20 04:22:58;;;;;;;;;;;;;;;20.18;66.85;99345.03;5095448;28;20368;-71
2021/07/20 04:25:30;;;;;;;;;;;;;;;20.18;66.78;99345.84;5077452;28;20362;-71
2021/07/20 04:28:06;;;;;;;;;;;;;;;20.26;66.84;99348.13;5077095;28;20420;-71
2021/07/20 04:30:40;;;;;;;;;;;;;;;20.37;66.71;99346.72;5095117;28;19924;-71
2021/07/20 04:33:10;;;;;;;;;;;;;;;20.46;66.39;99342.88;5095027;28;19924;-71
2021/07/20 04:35:57;;;;;;;;;;;;;;;20.52;66.02;99348.59;5077522;28;20027;-72
2021/07/20 04:38:29;;;;;;;;;;;;;;;20.58;65.50;99347.50;5077082;28;19970;-71
2021/07/20 04:40:58;;;;;;;;;;;;;;;20.64;65.62;99350.63;5077039;28;19924;-71
2021/07/20 04:43:28;;;;;;;;;;;;;;;20.75;65.07;99350.13;5094107;28;19924;-71
2021/07/20 04:46:01;;;;;;;;;;;;;;;20.85;64.83;99353.97;5095366;28;20413;-71
2021/07/20 04:48:35;;;;;;;;;;;;;;;20.95;64.51;99349.16;5094824;28;19945;-72
2021/07/20 04:51:13;;;;;;;;;;;;;;;21.02;64.18;99351.41;5094732;28;20401;-70
2021/07/20 04:53:44;;;;;;;;;;;;;;;21.08;63.97;99348.56;5076833;28;19930;-70
2021/07/20 04:56:14;;;;;;;;;;;;;;;21.12;63.60;99359.59;5076569;28;20019;-71
2021/07/20 04:58:52;;;;;;;;;;;;;;;21.22;63.44;99348.72;5076656;28;20015;-71
2021/07/20 05:01:23;;;;;;;;;;;;;;;21.29;63.32;99352.69;5076547;28;19973;-71
2021/07/20 05:03:55;;;;;;;;;;;;;;;21.33;62.76;99354.19;5076527;28;19956;-71
2021/07/20 05:06:32;;;;;;;;;;;;;;;21.42;62.84;99354.66;5077060;28;20355;-70
2021/07/20 05:09:02;;;;;;;;;;;;;;;21.48;62.43;99360.38;5094300;28;20015;-71
2021/07/20 05:11:32;;;;;;;;;;;;;;;21.50;62.62;99353.34;5094393;28;19924;-71
2021/07/20 05:14:01;;;;;;;;;;;;;;;21.60;62.28;99364.97;5094350;28;19928;-71
2021/07/20 05:16:33;;;;;;;;;;;;;;;21.67;62.16;99375.88;5076373;28;20370;-71
2021/07/20 05:19:06;;;;;;;;;;;;;;;21.69;61.76;99380.09;5076554;28;19930;-71
2021/07/20 05:22:01;;;;;;;;;;;;;;;21.76;61.55;99380.63;5045488;28;19931;-70
2021/07/20 05:24:48;;;;;;;;;;;;;;;21.91;61.28;99382.47;5076579;28;20346;-71
2021/07/20 05:27:22;;;;;;;;;;;;;;;22.03;61.10;99374.88;5076259;28;19928;-71
2021/07/20 05:29:53;;;;;;;;;;;;;;;22.13;60.66;99379.59;5094425;28;19967;-71
2021/07/20 05:32:38;;;;;;;;;;;;;;;22.20;60.21;99384.38;5094151;28;20022;-70
2021/07/20 05:35:09;;;;;;;;;;;;;;;22.24;60.11;99393.72;5076200;28;20450;-70
2021/07/20 05:37:40;;;;;;;;;;;;;;;22.29;59.69;99389.09;5094761;28;19924;-70
2021/07/20 05:40:11;;;;;;;;;;;;;;;22.31;59.31;99391.63;5076437;28;19925;-71
2021/07/20 05:42:43;;;;;;;;;;;;;;;22.37;59.46;99389.53;5076185;28;19931;-71
2021/07/20 05:45:23;;;;;;;;;;;;;;;22.51;59.52;99391.38;5076075;28;19924;-71
2021/07/20 05:47:58;;;;;;;;;;;;;;;22.54;58.88;99386.03;5093996;28;19924;-71
2021/07/20 05:50:36;;;;;;;;;;;;;;;22.64;58.76;99377.69;5076099;28;20294;-71
2021/07/20 05:53:28;;;;;;;;;;;;;;;22.75;58.24;99378.88;5084150;28;19928;-71
2021/07/20 05:56:18;;;;;;;;;;;;;;;22.83;57.79;99381.88;5097975;28;19931;-71
2021/07/20 05:58:57;;;;;;;;;;;;;;;22.82;57.74;99385.41;5080310;28;19924;-72
2021/07/20 06:01:28;;;;;;;;;;;;;;;22.88;57.49;99390.25;5079866;28;19928;-71
2021/07/20 06:04:01;;;;;;;;;;;;;;;22.97;57.25;99392.34;5080160;28;19924;-70
2021/07/20 06:06:30;;;;;;;;;;;;;;;22.98;56.98;99391.44;5097780;28;19969;-72
2021/07/20 06:09:01;;;;;;;;;;;;;;;23.10;56.95;99395.97;5098020;28;19960;-71
2021/07/20 06:11:33;;;;;;;;;;;;;;;23.17;56.67;99389.47;5097745;28;19928;-71
2021/07/20 06:14:03;;;;;;;;;;;;;;;23.20;56.28;99397.94;5097623;28;19924;-71
2021/07/20 06:16:34;;;;;;;;;;;;;;;23.29;56.05;99393.97;5097935;28;19977;-73
2021/07/20 06:19:05;;;;;;;;;;;;;;;23.31;55.93;99397.34;5098211;28;19974;-73
2021/07/20 06:21:35;;;;;;;;;;;;;;;23.24;55.61;99393.41;5097486;28;19930;-70
2021/07/20 06:24:06;;;;;;;;;;;;;;;23.20;55.69;99391.91;5098180;28;19924;-71
2021/07/20 06:26:36;;;;;;;;;;;;;;;23.32;55.69;99396.41;5097411;28;19930;-71
2021/07/20 06:29:07;;;;;;;;;;;;;;;23.38;55.33;99388.28;5097336;28;19970;-71
2021/07/20 06:31:39;;;;;;;;;;;;;;;23.43;55.29;99403.63;5097436;28;19924;-71
2021/07/20 06:34:09;;;;;;;;;;;;;;;23.60;55.23;99398.28;5079288;28;19924;-71
2021/07/20 06:36:39;;;;;;;;;;;;;;;23.75;54.96;99402.63;5097572;28;19925;-70
2021/07/20 06:39:08;;;;;;;;;;;;;;;23.77;54.76;99399.00;5097559;28;19924;-71
2021/07/20 06:41:37;;;;;;;;;;;;;;;23.76;54.57;99402.50;5097384;28;19954;-71
2021/07/20 06:44:07;;;;;;;;;;;;;;;23.90;54.67;99410.34;5097039;28;19997;-71
2021/07/20 06:46:36;;;;;;;;;;;;;;;23.97;54.50;99403.84;5096990;28;20023;-71
2021/07/20 06:49:05;;;;;;;;;;;;;;;24.05;54.50;99402.53;5096910;28;19924;-71
2021/07/20 06:51:35;;;;;;;;;;;;;;;24.22;54.39;99399.78;5097221;28;20277;-70
2021/07/20 06:54:04;;;;;;;;;;;;;;;24.28;53.60;99400.25;5078953;28;19924;-70
2021/07/20 06:56:38;;;;;;;;;;;;;;;24.30;53.39;99402.78;5096852;28;19954;-71
2021/07/20 06:59:07;;;;;;;;;;;;;;;24.34;53.00;99404.25;5096830;28;20404;-71
2021/07/20 07:01:38;;;;;;;;;;;;;;;24.30;52.56;99402.78;5096769;28;19947;-71
2021/07/20 07:04:10;;;;;;;;;;;;;;;24.21;53.18;99396.34;5096715;28;20301;-70
2021/07/20 07:06:42;;;;;;;;;;;;;;;24.31;53.18;99409.66;5078395;28;19924;-71
2021/07/20 07:09:11;;;;;;;;;;;;;;;24.29;52.74;99412.38;5096863;28;19924;-71
2021/07/20 07:11:41;;;;;;;;;;;;;;;24.43;52.76;99411.50;5096663;28;19924;-71
2021/07/20 07:14:11;;;;;;;;;;;;;;;24.50;52.65;99411.06;5096492;28;20011;-72
2021/07/20 07:16:42;;;;;;;;;;;;;;;24.64;52.23;99412.81;5096901;28;19924;-71
2021/07/20 07:19:14;;;;;;;;;;;;;;;24.85;51.91;99414.13;5096390;28;19973;-71
2021/07/20 07:21:44;;;;;;;;;;;;;;;25.05;52.27;99413.66;5096186;28;19924;-71
2021/07/20 07:24:14;;;;;;;;;;;;;;;25.25;51.32;99415.84;5096380;28;19974;-71
2021/07/20 07:26:43;;;;;;;;;;;;;;;25.27;50.82;99413.13;5096180;28;19969;-72
2021/07/20 07:29:14;;;;;;;;;;;;;;;25.37;51.30;99413.34;5096096;28;19924;-72
2021/07/20 07:31:45;;;;;;;;;;;;;;;25.42;50.65;99413.91;5096042;28;19924;-71
2021/07/20 07:34:14;;;;;;;;;;;;;;;25.50;50.06;99414.28;5096055;28;19924;-71
2021/07/20 07:36:46;;;;;;;;;;;;;;;25.52;49.79;99420.22;5095964;28;20024;-71
2021/07/20 07:39:16;;;;;;;;;;;;;;;25.64;50.26;99409.81;5095959;28;19924;-71
2021/07/20 07:41:46;;;;;;;;;;;;;;;25.74;49.40;99417.88;5095927;28;19924;-72
2021/07/20 07:44:15;;;;;;;;;;;;;;;25.81;49.05;99421.75;5096065;28;19953;-71
2021/07/20 07:46:44;;;;;;;;;;;;;;;25.80;49.24;99422.69;5095968;28;20434;-71
2021/07/20 07:49:14;;;;;;;;;;;;;;;25.85;49.34;99420.59;5095689;28;20312;-71
2021/07/20 07:51:44;;;;;;;;;;;;;;;25.89;48.90;99427.31;5095986;28;19985;-71
2021/07/20 07:54:15;;;;;;;;;;;;;;;25.91;48.55;99420.19;5095576;28;19955;-71
2021/07/20 07:56:44;;;;;;;;;;;;;;;25.90;48.03;99418.50;5095530;28;19973;-72
2021/07/20 07:59:14;;;;;;;;;;;;;;;25.85;48.25;99415.38;5095441;28;19924;-71
2021/07/20 08:01:45;;;;;;;;;;;;;;;25.69;48.16;99404.28;5095870;28;20289;-70
2021/07/20 08:04:15;;;;;;;;;;;;;;;25.66;48.52;99420.16;5095226;28;20340;-71
2021/07/20 08:06:44;;;;;;;;;;;;;;;25.93;48.84;99413.09;5095634;28;20289;-71
2021/07/20 08:09:15;;;;;;;;;;;;;;;25.95;47.95;99424.28;5095379;28;20388;-71
2021/07/20 08:11:45;;;;;;;;;;;;;;;25.92;47.69;99416.63;5095691;28;19924;-71
2021/07/20 08:14:15;;;;;;;;;;;;;;;25.91;48.03;99414.97;5095636;28;19924;-71
2021/07/20 08:16:45;;;;;;;;;;;;;;;25.90;47.62;99419.34;5095140;28;19924;-70
2021/07/20 08:19:15;;;;;;;;;;;;;;;25.94;47.87;99419.97;5095164;28;20392;-71
2021/07/20 08:21:45;;;;;;;;;;;;;;;26.04;47.28;99421.03;5095268;28;20002;-71
2021/07/20 08:24:15;;;;;;;;;;;;;;;26.28;47.79;99411.53;5095479;28;20022;-71
2021/07/20 08:26:47;;;;;;;;;;;;;;;26.39;47.99;99411.63;5095088;28;19924;-71
2021/07/20 08:29:17;;;;;;;;;;;;;;;26.51;47.36;99418.59;5095741;28;20269;-71
2021/07/20 08:31:49;;;;;;;;;;;;;;;26.63;46.28;99416.94;5095061;28;19956;-71
2021/07/20 08:34:19;;;;;;;;;;;;;;;26.61;46.23;99418.78;5095320;28;20014;-72
2021/07/20 08:36:49;;;;;;;;;;;;;;;26.63;45.57;99419.53;5094955;28;19932;-72
2021/07/20 08:39:20;;;;;;;;;;;;;;;26.72;45.70;99412.81;5094762;28;19924;-70
2021/07/20 08:41:59;;;;;;;;;;;;;;;26.75;45.81;99409.97;5094919;28;19931;-71
2021/07/20 08:44:37;;;;;;;;;;;;;;;26.78;45.30;99409.81;5094734;28;19970;-71
2021/07/20 08:47:10;;;;;;;;;;;;;;;26.84;44.93;99411.97;5094817;28;19927;-72
2021/07/20 08:50:01;;;;;;;;;;;;;;;26.95;45.25;99417.25;5094870;28;20298;-72
2021/07/20 08:52:33;;;;;;;;;;;;;;;27.15;44.62;99417.50;5088985;28;19928;-71
2021/07/20 08:55:08;;;;;;;;;;;;;;;27.37;45.44;99422.03;5094571;28;19931;-70
2021/07/20 08:57:40;;;;;;;;;;;;;;;27.51;45.04;99421.88;5094476;28;19962;-71
2021/07/20 09:00:10;;;;;;;;;;;;;;;27.55;43.95;99432.94;5094490;28;19973;-69
2021/07/20 09:02:41;;;;;;;;;;;;;;;27.42;43.24;99422.56;5094426;28;20439;-72
2021/07/20 09:05:16;;;;;;;;;;;;;;;27.41;43.75;99428.72;5094493;28;19932;-71
2021/07/20 09:07:53;;;;;;;;;;;;;;;27.47;43.14;99414.34;5094634;28;19976;-70
2021/07/20 09:10:24;;;;;;;;;;;;;;;27.56;43.34;99411.88;5094275;28;19924;-70
2021/07/20 09:12:53;;;;;;;;;;;;;;;27.64;42.73;99417.34;5094273;28;19924;-71
2021/07/20 09:15:25;;;;;;;;;;;;;;;27.66;42.48;99420.72;5094394;28;19924;-70
2021/07/20 09:18:01;;;;;;;;;;;;;;;27.57;41.76;99413.53;5094480;28;20362;-71
2021/07/20 09:20:33;;;;;;;;;;;;;;;27.73;41.73;99414.06;5094066;28;20370;-72
2021/07/20 09:23:04;;;;;;;;;;;;;;;27.71;41.47;99408.09;5094100;28;20365;-71
2021/07/20 09:25:35;;;;;;;;;;;;;;;27.80;42.02;99407.41;5094221;28;19924;-71
2021/07/20 09:28:07;;;;;;;;;;;;;;;27.79;41.75;99404.88;5093704;28;19925;-71
2021/07/20 09:30:41;;;;;;;;;;;;;;;27.75;41.63;99391.19;5094027;28;20344;-73
2021/07/20 09:33:15;;;;;;;;;;;;;;;27.77;41.05;99384.03;5093936;28;19924;-70
2021/07/20 09:35:50;;;;;;;;;;;;;;;27.71;41.01;99389.75;5093895;28;19924;-72
2021/07/20 09:38:28;;;;;;;;;;;;;;;27.70;41.64;99382.81;5094221;28;20028;-70
2021/07/20 09:41:03;;;;;;;;;;;;;;;27.80;41.29;99394.28;5093867;28;19924;-70
2021/07/20 09:43:42;;;;;;;;;;;;;;;27.86;41.21;99392.97;5093664;28;20408;-72
2021/07/20 09:46:18;;;;;;;;;;;;;;;28.10;40.91;99385.06;5093798;28;19973;-70
2021/07/20 09:48:50;;;;;;;;;;;;;;;28.36;40.87;99391.75;5093867;28;19932;-71
2021/07/20 09:51:25;;;;;;;;;;;;;;;28.17;40.04;99392.31;5094853;28;19924;-72
2021/07/20 09:54:08;;;;;;;;;;;;;;;27.89;40.39;99396.22;5093848;28;19948;-71
2021/07/20 09:56:48;;;;;;;;;;;;;;;27.78;39.53;99400.59;5075808;28;19928;-71
2021/07/20 09:59:28;;;;;;;;;;;;;;;28.17;40.62;99396.75;5093933;28;20301;-70
2021/07/20 10:01:58;;;;;;;;;;;;;;;28.25;39.71;99394.34;5093788;28;19931;-70
2021/07/20 10:04:30;;;;;;;;;;;;;;;27.92;39.66;99398.59;5093771;28;19924;-70
2021/07/20 10:07:03;;;;;;;;;;;;;;;27.56;40.05;99411.88;5093826;28;20389;-70
2021/07/20 10:09:37;;;;;;;;;;;;;;;27.39;40.89;99409.66;5093666;28;20329;-71
2021/07/20 10:12:11;;;;;;;;;;;;;;;27.23;40.93;99403.84;5093662;28;20437;-71
2021/07/20 10:14:44;;;;;;;;;;;;;;;27.22;42.34;99402.16;5093960;28;19986;-71
2021/07/20 10:17:19;;;;;;;;;;;;;;;27.11;42.06;99405.56;5093743;28;19981;-71
2021/07/20 10:19:52;;;;;;;;;;;;;;;27.06;41.61;99417.34;5093708;28;19977;-72
2021/07/20 10:22:27;;;;;;;;;;;;;;;27.08;42.19;99404.97;5075663;28;20290;-69
2021/07/20 10:24:59;;;;;;;;;;;;;;;27.13;41.83;99410.72;5094225;28;19963;-72
2021/07/20 10:27:37;;;;;;;;;;;;;;;27.14;42.21;99401.88;5093526;28;19930;-72
2021/07/20 10:30:08;;;;;;;;;;;;;;;27.12;42.10;99398.53;5093525;28;19924;-70
2021/07/20 10:32:42;;;;;;;;;;;;;;;27.04;41.24;99406.94;5093407;28;20010;-72
2021/07/20 10:35:14;;;;;;;;;;;;;;;27.14;41.14;99407.13;5093640;28;19952;-72
2021/07/20 10:37:46;;;;;;;;;;;;;;;27.28;41.44;99406.97;5093727;28;20018;-73
2021/07/20 10:40:39;;;;;;;;;;;;;;;27.49;40.68;99410.66;5094738;28;19924;-72
2021/07/20 10:43:14;;;;;;;;;;;;;;;27.77;40.69;99405.00;5097073;28;19924;-72
2021/07/20 10:45:43;;;;;;;;;;;;;;;28.14;40.18;99408.31;5097001;28;20289;-70
2021/07/20 10:48:13;;;;;;;;;;;;;;;28.38;38.79;99402.94;5096860;28;19928;-70
2021/07/20 10:50:44;;;;;;;;;;;;;;;28.47;38.32;99400.44;5096932;28;19924;-71
2021/07/20 10:53:19;;;;;;;;;;;;;;;28.32;38.65;99395.53;5097086;28;20419;-73
2021/07/20 10:55:53;;;;;;;;;;;;;;;28.55;40.03;99370.94;5096940;28;19924;-72
2021/07/20 10:58:27;;;;;;;;;;;;;;;28.67;39.08;99396.28;5062132;28;19928;-72
2021/07/20 11:00:59;;;;;;;;;;;;;;;28.29;39.43;99387.94;5097090;28;19924;-71
2021/07/20 11:03:33;;;;;;;;;;;;;;;28.21;39.44;99392.91;5096840;28;20018;-72
2021/07/20 11:06:03;;;;;;;;;;;;;;;28.28;40.16;99394.13;5096667;28;19951;-71
2021/07/20 11:08:36;;;;;;;;;;;;;;;28.55;40.30;99397.22;5096679;28;19928;-72
2021/07/20 11:11:04;;;;;;;;;;;;;;;28.65;40.25;99392.91;5096699;28;19977;-70
2021/07/20 11:13:37;;;;;;;;;;;;;;;28.69;40.33;99389.09;5078044;28;20008;-70
2021/07/20 11:16:08;;;;;;;;;;;;;;;28.48;39.34;99385.53;5096833;28;19974;-71
2021/07/20 11:18:38;;;;;;;;;;;;;;;28.51;41.18;99385.25;5096380;28;19924;-72
2021/07/20 11:21:09;;;;;;;;;;;;;;;28.56;40.13;99388.34;5095941;28;19928;-71
2021/07/20 11:23:39;;;;;;;;;;;;;;;28.53;39.47;99383.34;5096314;28;19928;-72
2021/07/20 11:26:08;;;;;;;;;;;;;;;28.68;39.56;99387.41;5096429;28;19964;-71
2021/07/20 11:28:40;;;;;;;;;;;;;;;28.73;38.77;99385.25;5096157;28;19970;-71
2021/07/20 11:31:11;;;;;;;;;;;;;;;28.79;38.58;99391.84;5096128;28;19963;-70
2021/07/20 11:33:42;;;;;;;;;;;;;;;28.93;39.26;99387.13;5096635;28;20354;-70
2021/07/20 11:36:13;;;;;;;;;;;;;;;29.01;38.57;99389.97;5096117;28;19959;-71
2021/07/20 11:38:44;;;;;;;;;;;;;;;28.87;38.36;99398.13;5096128;28;19928;-70
2021/07/20 11:41:19;;;;;;;;;;;;;;;28.46;38.22;99387.41;5096032;28;19928;-72
2021/07/20 11:44:01;;;;;;;;;;;;;;;28.40;38.82;99385.28;5096013;28;19924;-70
2021/07/20 11:46:34;;;;;;;;;;;;;;;28.44;38.64;99384.06;5095924;28;20014;-71
2021/07/20 11:49:05;;;;;;;;;;;;;;;28.26;38.35;99380.28;5095953;28;19928;-71
2021/07/20 11:51:38;;;;;;;;;;;;;;;28.38;39.00;99380.16;5095537;28;19924;-72
2021/07/20 11:54:11;;;;;;;;;;;;;;;28.80;39.03;99381.19;5096149;28;20336;-72
2021/07/20 11:56:44;;;;;;;;;;;;;;;28.97;38.88;99387.72;5095663;28;19925;-72
2021/07/20 11:59:27;;;;;;;;;;;;;;;29.11;39.02;99385.63;5096106;28;20034;-71
2021/07/20 12:02:07;;;;;;;;;;;;;;;29.18;38.33;99384.19;5095649;28;19924;-72
2021/07/20 12:04:45;;;;;;;;;;;;;;;29.23;38.46;99380.38;5095555;28;19931;-71
2021/07/20 12:07:21;;;;;;;;;;;;;;;29.45;39.22;99372.34;5095457;28;19924;-72
2021/07/20 12:10:01;;;;;;;;;;;;;;;29.56;38.97;99385.47;5095500;28;19924;-72
2021/07/20 12:12:37;;;;;;;;;;;;;;;29.22;39.04;99384.78;5095476;28;19925;-71
2021/07/20 12:15:06;;;;;;;;;;;;;;;29.31;40.32;99393.72;5095394;28;19924;-71
2021/07/20 12:17:35;;;;;;;;;;;;;;;29.22;40.29;99386.59;5095379;28;19931;-72
2021/07/20 12:20:06;;;;;;;;;;;;;;;29.10;40.03;99394.50;5095394;28;19928;-72
2021/07/20 12:22:35;;;;;;;;;;;;;;;29.09;39.73;99386.72;5095222;28;19959;-71
2021/07/20 12:25:05;;;;;;;;;;;;;;;29.33;40.08;99394.41;5095559;28;20279;-71
2021/07/20 12:27:33;;;;;;;;;;;;;;;29.03;39.04;99387.22;5095420;28;20033;-71
2021/07/20 12:30:04;;;;;;;;;;;;;;;28.82;39.21;99384.53;5095149;28;19924;-72
2021/07/20 12:32:34;;;;;;;;;;;;;;;28.40;40.40;99387.91;5095445;28;20374;-72
2021/07/20 12:35:03;;;;;;;;;;;;;;;28.06;40.72;99399.34;5095218;28;19967;-72
2021/07/20 12:37:34;;;;;;;;;;;;;;;28.16;40.58;99381.94;5094637;28;19977;-71
2021/07/20 12:40:04;;;;;;;;;;;;;;;28.23;40.97;99396.25;5095089;28;20255;-70
2021/07/20 12:42:33;;;;;;;;;;;;;;;28.22;40.26;99405.09;5095230;28;19924;-71
2021/07/20 12:45:03;;;;;;;;;;;;;;;28.58;40.72;99397.78;5094676;28;19924;-70
2021/07/20 12:47:41;;;;;;;;;;;;;;;28.62;39.54;99393.19;5095047;28;20345;-72
2021/07/20 12:50:11;;;;;;;;;;;;;;;28.55;39.17;99392.78;5094929;28;20402;-70
2021/07/20 12:52:42;;;;;;;;;;;;;;;28.41;38.29;99394.84;5094694;28;19924;-72
2021/07/20 12:55:11;;;;;;;;;;;;;;;28.26;38.57;99391.63;5095329;28;19969;-72
2021/07/20 12:57:40;;;;;;;;;;;;;;;28.38;38.79;99389.81;5094594;28;19924;-75
2021/07/20 13:00:30;;;;;;;;;;;;;;;28.51;38.94;99395.75;5094400;28;20377;-71
2021/07/20 13:02:59;;;;;;;;;;;;;;;28.54;38.16;99395.53;5093778;28;19924;-72
2021/07/20 13:05:29;;;;;;;;;;;;;;;28.60;39.01;99389.84;5094297;28;19931;-72
2021/07/20 13:08:00;;;;;;;;;;;;;;;28.82;38.80;99392.41;5094308;28;19924;-72
2021/07/20 13:10:30;;;;;;;;;;;;;;;28.97;38.14;99401.69;5094538;28;19959;-71
2021/07/20 13:12:59;;;;;;;;;;;;;;;28.90;37.55;99400.50;5094783;28;19924;-71
2021/07/20 13:15:28;;;;;;;;;;;;;;;28.57;36.14;99392.66;5094292;28;19924;-71
2021/07/20 13:17:57;;;;;;;;;;;;;;;28.34;36.76;99383.97;5094235;28;19924;-71